Time;durP1;ratioP1;P1;durP2;ratioP2;P2;SDS_P1;SDS_P2;PMS_P1;PMS_P2;Temp;Humidity;BMP_temperature;BMP_pressure;BME280_temperature;BME280_humidity;BME280_pressure;Samples;Min_cycle;Max_cycle;Signal;HPM_P1;HPM_P2
2021/04/06 00:00:08;;;;;;;4.32;1.45;;;2.70;99.90;;;;;;5077654;28;20289;-84
2021/04/06 00:02:35;;;;;;;5.18;1.40;;;2.50;99.90;;;;;;5080379;28;20292;-85
2021/04/06 00:05:07;;;;;;;6.97;1.65;;;2.80;99.90;;;;;;5082740;28;20724;-84
2021/04/06 00:07:34;;;;;;;5.03;1.90;;;2.50;99.90;;;;;;5084670;28;20241;-84
2021/04/06 00:10:07;;;;;;;7.10;1.67;;;2.60;99.90;;;;;;5078694;28;20216;-84
2021/04/06 00:12:34;;;;;;;6.15;2.10;;;2.40;99.90;;;;;;5078995;28;20205;-83
2021/04/06 00:15:01;;;;;;;4.05;1.42;;;2.40;99.90;;;;;;5078651;28;20814;-82
2021/04/06 00:17:29;;;;;;;4.90;1.50;;;2.50;99.90;;;;;;5078503;28;20244;-85
2021/04/06 00:19:58;;;;;;;6.47;1.77;;;2.40;99.90;;;;;;5079792;28;20198;-84
2021/04/06 00:22:30;;;;;;;3.10;1.25;;;2.50;99.90;;;;;;5079733;28;20614;-84
2021/04/06 00:24:58;;;;;;;4.55;1.50;;;2.50;99.90;;;;;;5079250;28;20260;-84
2021/04/06 00:27:29;;;;;;;4.93;1.65;;;2.30;99.90;;;;;;5079912;28;20226;-83
2021/04/06 00:29:58;;;;;;;4.40;1.45;;;2.30;99.90;;;;;;5081116;28;20221;-83
2021/04/06 00:32:27;;;;;;;4.93;1.80;;;2.20;99.90;;;;;;5080992;28;20259;-85
2021/04/06 00:34:56;;;;;;;3.88;1.55;;;2.20;99.90;;;;;;5080959;28;20257;-84
2021/04/06 00:37:24;;;;;;;6.10;1.77;;;2.30;99.90;;;;;;5080415;28;20230;-82
2021/04/06 00:39:59;;;;;;;3.78;1.63;;;2.40;99.90;;;;;;5087075;28;20216;-84
2021/04/06 00:42:28;;;;;;;4.07;1.63;;;2.10;99.90;;;;;;5080267;28;20201;-84
2021/04/06 00:44:57;;;;;;;5.22;1.48;;;2.10;99.90;;;;;;5081479;28;20803;-83
2021/04/06 00:47:26;;;;;;;4.93;2.33;;;2.30;99.90;;;;;;5082546;28;20312;-84
2021/04/06 00:49:55;;;;;;;7.03;1.42;;;2.20;99.90;;;;;;5082338;28;20198;-82
2021/04/06 00:52:22;;;;;;;6.78;1.85;;;2.20;99.90;;;;;;5083177;28;20303;-85
2021/04/06 00:54:52;;;;;;;3.45;1.15;;;2.30;99.90;;;;;;5091214;22;20706;-79
2021/04/06 00:57:19;;;;;;;6.07;1.88;;;2.10;99.90;;;;;;5077139;28;20217;-79
2021/04/06 01:00:13;;;;;;;4.13;1.90;;;2.30;99.90;;;;;;5078105;28;20206;-79
2021/04/06 01:02:43;;;;;;;4.05;1.50;;;2.20;99.90;;;;;;5057269;28;20771;-79
2021/04/06 01:05:11;;;;;;;6.38;1.70;;;1.90;99.90;;;;;;5062189;28;20304;-79
2021/04/06 01:07:38;;;;;;;5.95;1.52;;;2.00;99.90;;;;;;5074354;28;20230;-79
2021/04/06 01:10:07;;;;;;;9.40;3.85;;;2.00;99.90;;;;;;5073155;28;20284;-79
2021/04/06 01:12:33;;;;;;;5.35;2.03;;;2.40;99.90;;;;;;5072433;28;20301;-79
2021/04/06 01:15:01;;;;;;;6.55;1.52;;;2.30;99.90;;;;;;5071590;28;20253;-79
2021/04/06 01:17:30;;;;;;;4.63;1.48;;;2.20;99.90;;;;;;5073367;28;20260;-79
2021/04/06 01:19:59;;;;;;;5.95;1.90;;;2.10;99.90;;;;;;5059543;28;20206;-79
2021/04/06 01:22:28;;;;;;;3.95;2.08;;;2.10;99.90;;;;;;5056843;28;20206;-79
2021/04/06 01:24:55;;;;;;;4.95;1.88;;;2.00;99.90;;;;;;5054036;28;20229;-80
2021/04/06 01:27:21;;;;;;;8.50;2.08;;;2.10;99.90;;;;;;5056599;28;20711;-78
2021/04/06 01:29:49;;;;;;;5.75;1.80;;;2.00;99.90;;;;;;5070988;28;20293;-78
2021/04/06 01:32:17;;;;;;;4.70;2.10;;;2.00;99.90;;;;;;5071130;28;20241;-78
2021/04/06 01:34:44;;;;;;;7.28;2.80;;;1.90;99.90;;;;;;5070996;28;20285;-78
2021/04/06 01:37:11;;;;;;;5.85;2.30;;;2.00;99.90;;;;;;5071492;28;20289;-78
2021/04/06 01:39:39;;;;;;;4.28;1.98;;;1.90;99.90;;;;;;5071934;28;20206;-78
2021/04/06 01:42:07;;;;;;;4.53;2.10;;;2.10;99.90;;;;;;5074384;28;20209;-78
2021/04/06 01:44:37;;;;;;;7.03;2.05;;;1.90;99.90;;;;;;5074674;28;20679;-78
2021/04/06 01:47:04;;;;;;;5.38;2.05;;;1.90;99.90;;;;;;5074092;28;20261;-78
2021/04/06 01:49:31;;;;;;;3.42;1.60;;;2.00;99.90;;;;;;5073674;28;20237;-78
2021/04/06 01:51:58;;;;;;;5.55;2.03;;;1.80;99.90;;;;;;5073897;28;20209;-78
2021/04/06 01:54:26;;;;;;;11.85;3.45;;;1.90;99.90;;;;;;5083991;28;20264;-78
2021/04/06 01:56:59;;;;;;;7.97;3.28;;;1.70;99.90;;;;;;5074631;28;20258;-78
2021/04/06 01:59:37;;;;;;;5.40;1.95;;;1.80;99.90;;;;;;5073642;28;20297;-78
2021/04/06 02:02:04;;;;;;;6.72;1.85;;;1.80;99.90;;;;;;5057911;28;20567;-78
2021/04/06 02:04:31;;;;;;;4.78;1.60;;;1.80;99.90;;;;;;5074019;28;20238;-78
2021/04/06 02:06:59;;;;;;;6.45;2.17;;;1.80;99.90;;;;;;5074042;28;20542;-78
2021/04/06 02:09:26;;;;;;;5.38;1.80;;;1.70;99.90;;;;;;5074524;28;20608;-78
2021/04/06 02:11:53;;;;;;;5.68;2.03;;;1.80;99.90;;;;;;5074520;28;20229;-78
2021/04/06 02:14:21;;;;;;;5.00;1.80;;;1.70;99.90;;;;;;5073279;28;20217;-78
2021/04/06 02:16:50;;;;;;;8.48;2.00;;;1.90;99.90;;;;;;5073322;28;20272;-78
2021/04/06 02:19:25;;;;;;;4.05;1.85;;;1.90;99.90;;;;;;5073131;28;20316;-78
2021/04/06 02:21:53;;;;;;;4.15;2.00;;;1.80;99.90;;;;;;5073519;28;20296;-78
2021/04/06 02:24:34;;;;;;;4.60;2.38;;;1.70;99.90;;;;;;5069151;28;20284;-78
2021/04/06 02:27:02;;;;;;;5.15;2.28;;;1.90;99.90;;;;;;5070512;28;20233;-78
2021/04/06 02:29:29;;;;;;;6.05;1.98;;;1.70;99.90;;;;;;5056901;28;20547;-78
2021/04/06 02:31:58;;;;;;;11.50;2.72;;;1.60;99.90;;;;;;5072872;28;20695;-78
2021/04/06 02:34:33;;;;;;;7.25;2.05;;;1.50;99.90;;;;;;5053169;28;20313;-78
2021/04/06 02:37:00;;;;;;;3.97;1.90;;;1.70;99.90;;;;;;5053080;28;20267;-78
2021/04/06 02:39:26;;;;;;;6.90;1.80;;;1.60;99.90;;;;;;5052750;28;20284;-78
2021/04/06 02:41:53;;;;;;;3.30;1.65;;;1.70;99.90;;;;;;5052801;28;20661;-78
2021/04/06 02:44:19;;;;;;;3.75;1.55;;;1.60;99.90;;;;;;5072020;28;20619;-78
2021/04/06 02:46:50;;;;;;;6.47;1.98;;;1.80;99.90;;;;;;5074471;28;20296;-78
2021/04/06 02:49:18;;;;;;;5.18;1.92;;;1.90;99.90;;;;;;5074214;28;20214;-78
2021/04/06 02:51:48;;;;;;;4.43;2.28;;;1.60;99.90;;;;;;5077865;28;20308;-78
2021/04/06 02:54:15;;;;;;;5.35;2.42;;;1.60;99.90;;;;;;5086054;28;20245;-77
2021/04/06 02:56:41;;;;;;;5.88;2.10;;;1.60;99.90;;;;;;5094774;28;20220;-77
2021/04/06 02:59:16;;;;;;;6.68;2.15;;;1.40;99.90;;;;;;5076853;28;20297;-78
2021/04/06 03:01:43;;;;;;;5.53;2.38;;;1.50;99.90;;;;;;5072073;28;20577;-78
2021/04/06 03:04:21;;;;;;;6.93;2.45;;;1.60;99.90;;;;;;5072715;28;20291;-78
2021/04/06 03:06:48;;;;;;;5.03;2.40;;;1.60;99.90;;;;;;5074111;28;20206;-78
2021/04/06 03:09:15;;;;;;;4.78;1.75;;;1.80;99.90;;;;;;5075285;28;20213;-78
2021/04/06 03:11:42;;;;;;;5.80;2.20;;;1.70;99.90;;;;;;5072840;28;20198;-78
2021/04/06 03:14:09;;;;;;;7.20;1.80;;;1.70;99.90;;;;;;5074129;28;20225;-78
2021/04/06 03:16:37;;;;;;;7.18;2.00;;;1.50;99.90;;;;;;5074431;28;20233;-77
2021/04/06 03:19:05;;;;;;;4.78;1.95;;;1.70;99.90;;;;;;5070478;28;20222;-78
2021/04/06 03:21:32;;;;;;;4.32;2.17;;;1.60;99.90;;;;;;5074727;28;20349;-78
2021/04/06 03:23:59;;;;;;;4.25;1.95;;;1.60;99.90;;;;;;5070554;28;20622;-78
2021/04/06 03:26:26;;;;;;;4.00;2.00;;;1.60;99.90;;;;;;5061797;28;20605;-78
2021/04/06 03:28:52;;;;;;;4.60;1.75;;;1.80;99.90;;;;;;5073953;28;20233;-77
2021/04/06 03:31:21;;;;;;;4.43;2.03;;;1.50;99.90;;;;;;5073089;28;20688;-78
2021/04/06 03:33:49;;;;;;;6.45;2.00;;;1.50;99.90;;;;;;5076497;28;20256;-78
2021/04/06 03:36:21;;;;;;;6.25;2.10;;;1.50;99.90;;;;;;5076910;28;20266;-78
2021/04/06 03:38:50;;;;;;;8.23;2.00;;;1.50;99.90;;;;;;5076940;28;20201;-78
2021/04/06 03:41:18;;;;;;;5.85;2.15;;;1.70;99.90;;;;;;5074075;28;20216;-78
2021/04/06 03:43:44;;;;;;;8.68;2.60;;;1.70;99.90;;;;;;5075439;28;20230;-78
2021/04/06 03:46:11;;;;;;;7.13;2.50;;;1.80;99.90;;;;;;5077384;28;20210;-78
2021/04/06 03:48:40;;;;;;;6.25;2.45;;;1.60;99.90;;;;;;5076483;28;20582;-78
2021/04/06 03:51:26;;;;;;;4.20;2.17;;;1.60;99.90;;;;;;5060412;28;20213;-78
2021/04/06 03:53:54;;;;;;;7.10;2.00;;;1.60;99.90;;;;;;5079369;28;20240;-78
2021/04/06 03:56:29;;;;;;;5.32;2.22;;;1.60;99.90;;;;;;5079066;28;20267;-78
2021/04/06 03:58:57;;;;;;;5.45;2.22;;;1.50;99.90;;;;;;5076599;28;20201;-78
2021/04/06 04:01:23;;;;;;;6.35;2.15;;;1.70;99.90;;;;;;5074912;28;20314;-78
2021/04/06 04:03:53;;;;;;;4.57;2.20;;;1.60;99.90;;;;;;5074440;28;20664;-78
2021/04/06 04:06:24;;;;;;;4.43;1.75;;;1.50;99.90;;;;;;5073452;28;20206;-78
2021/04/06 04:08:50;;;;;;;6.70;2.15;;;1.60;99.90;;;;;;5072507;28;20256;-78
2021/04/06 04:11:18;;;;;;;5.03;2.30;;;1.70;99.90;;;;;;5071804;28;20297;-78
2021/04/06 04:13:44;;;;;;;5.60;2.38;;;1.50;99.90;;;;;;5071894;28;20218;-79
2021/04/06 04:16:10;;;;;;;4.10;2.53;;;1.70;99.90;;;;;;5073047;28;20239;-79
2021/04/06 04:18:37;;;;;;;8.00;2.40;;;1.60;99.90;;;;;;5072935;28;20213;-79
2021/04/06 04:21:04;;;;;;;6.55;2.25;;;1.70;99.90;;;;;;5072719;28;20214;-77
2021/04/06 04:23:31;;;;;;;7.90;2.85;;;1.70;99.90;;;;;;5070961;28;20230;-77
2021/04/06 04:25:58;;;;;;;6.82;2.90;;;1.80;99.90;;;;;;5069617;28;20252;-78
2021/04/06 04:28:25;;;;;;;7.38;2.35;;;1.80;99.90;;;;;;5071673;28;20229;-78
2021/04/06 04:30:52;;;;;;;5.65;2.30;;;1.90;99.90;;;;;;5061318;28;20231;-77
2021/04/06 04:33:20;;;;;;;6.72;3.22;;;1.90;99.90;;;;;;5066264;28;20668;-78
2021/04/06 04:35:47;;;;;;;6.63;2.35;;;2.00;99.90;;;;;;5072768;28;20255;-78
2021/04/06 04:38:13;;;;;;;6.68;2.15;;;1.80;99.90;;;;;;5071910;28;20198;-78
2021/04/06 04:40:42;;;;;;;5.65;2.90;;;1.90;99.90;;;;;;5074504;28;20833;-78
2021/04/06 04:43:10;;;;;;;5.07;2.28;;;2.00;99.90;;;;;;5075397;28;20198;-76
2021/04/06 04:45:37;;;;;;;9.43;3.08;;;2.10;99.90;;;;;;5071287;28;20210;-78
2021/04/06 04:48:04;;;;;;;5.80;2.15;;;2.10;99.90;;;;;;5073703;28;20707;-78
2021/04/06 04:50:31;;;;;;;5.57;2.40;;;1.90;99.90;;;;;;5077907;28;20691;-78
2021/04/06 04:52:58;;;;;;;7.10;2.90;;;2.00;99.90;;;;;;5078157;28;20213;-79
2021/04/06 04:55:25;;;;;;;5.47;2.60;;;1.80;99.90;;;;;;5076710;28;20320;-79
2021/04/06 04:57:52;;;;;;;4.10;2.30;;;1.80;99.90;;;;;;5071676;28;20300;-78
2021/04/06 05:00:19;;;;;;;8.60;3.17;;;1.90;99.90;;;;;;5070951;28;20230;-78
2021/04/06 05:02:46;;;;;;;6.97;2.75;;;2.10;99.90;;;;;;5070929;28;20232;-78
2021/04/06 05:05:15;;;;;;;7.55;2.72;;;1.90;99.90;;;;;;5070534;28;20308;-78
2021/04/06 05:07:42;;;;;;;6.55;3.00;;;2.00;99.90;;;;;;5070296;28;20252;-78
2021/04/06 05:10:10;;;;;;;8.75;2.80;;;2.00;99.90;;;;;;5070242;28;20289;-77
2021/04/06 05:12:38;;;;;;;12.48;3.10;;;2.10;99.90;;;;;;5070465;28;20209;-78
2021/04/06 05:15:06;;;;;;;5.40;2.80;;;2.20;99.90;;;;;;5072988;28;20218;-77
2021/04/06 05:17:32;;;;;;;8.98;2.88;;;2.00;99.90;;;;;;5074844;28;20206;-78
2021/04/06 05:20:00;;;;;;;7.93;3.00;;;2.10;99.90;;;;;;5074483;28;20198;-77
2021/04/06 05:22:26;;;;;;;9.30;3.50;;;2.00;99.90;;;;;;5074484;28;20272;-77
2021/04/06 05:24:52;;;;;;;5.93;2.83;;;1.80;99.90;;;;;;5062341;28;20310;-78
2021/04/06 05:27:19;;;;;;;8.00;3.00;;;2.00;99.90;;;;;;5061753;28;20214;-78
2021/04/06 05:29:45;;;;;;;8.02;3.13;;;2.20;99.90;;;;;;5075000;28;20212;-80
2021/04/06 05:32:11;;;;;;;6.57;3.30;;;2.10;99.90;;;;;;5070439;28;20238;-77
2021/04/06 05:34:38;;;;;;;7.72;2.97;;;2.20;99.90;;;;;;5060824;28;20248;-77
2021/04/06 05:37:05;;;;;;;7.20;3.08;;;2.20;99.90;;;;;;5075025;28;20296;-77
2021/04/06 05:39:31;;;;;;;6.07;3.00;;;2.10;99.90;;;;;;5075065;28;20251;-77
2021/04/06 05:41:58;;;;;;;8.20;3.25;;;2.30;99.90;;;;;;5077801;28;20602;-77
2021/04/06 05:44:24;;;;;;;8.63;3.00;;;2.20;99.90;;;;;;5075960;28;20248;-78
2021/04/06 05:46:53;;;;;;;8.95;3.67;;;2.40;99.90;;;;;;5073944;28;20240;-78
2021/04/06 05:49:22;;;;;;;6.88;3.08;;;2.10;99.90;;;;;;5073924;28;20289;-77
2021/04/06 05:51:49;;;;;;;6.80;2.75;;;2.20;99.90;;;;;;5074422;28;20289;-78
2021/04/06 05:54:17;;;;;;;11.32;3.65;;;2.40;99.90;;;;;;5080526;28;20329;-78
2021/04/06 05:56:44;;;;;;;5.18;2.28;;;2.30;99.90;;;;;;5075212;28;20205;-78
2021/04/06 05:59:11;;;;;;;8.68;3.00;;;2.40;99.90;;;;;;5074998;28;20204;-78
2021/04/06 06:01:40;;;;;;;7.80;3.13;;;2.40;99.90;;;;;;5074762;28;20206;-78
2021/04/06 06:04:08;;;;;;;10.10;3.38;;;2.30;99.90;;;;;;5075351;28;20230;-79
2021/04/06 06:06:34;;;;;;;8.85;2.97;;;2.50;99.90;;;;;;5074973;28;20209;-79
2021/04/06 06:09:03;;;;;;;7.22;2.92;;;2.40;99.90;;;;;;5075323;28;20558;-79
2021/04/06 06:11:30;;;;;;;10.38;3.05;;;2.50;99.90;;;;;;5075809;28;20234;-78
2021/04/06 06:13:57;;;;;;;8.82;2.78;;;2.60;99.90;;;;;;5076343;28;20234;-79
2021/04/06 06:16:26;;;;;;;9.63;3.10;;;2.60;99.90;;;;;;5075870;28;20225;-79
2021/04/06 06:19:00;;;;;;;8.20;3.15;;;2.50;99.90;;;;;;5074733;28;20285;-79
2021/04/06 06:21:39;;;;;;;10.32;3.30;;;2.40;99.90;;;;;;5076010;28;20224;-79
2021/04/06 06:24:07;;;;;;;5.50;2.80;;;2.60;99.90;;;;;;5069985;28;20228;-79
2021/04/06 06:26:34;;;;;;;6.18;3.10;;;2.40;99.90;;;;;;5059285;28;20216;-79
2021/04/06 06:29:21;;;;;;;7.25;2.65;;;2.60;99.90;;;;;;5076182;28;20218;-78
2021/04/06 06:31:50;;;;;;;9.38;3.00;;;2.60;99.90;;;;;;5078464;28;20205;-79
2021/04/06 06:34:34;;;;;;;4.78;2.78;;;2.70;99.90;;;;;;5077767;28;20308;-79
2021/04/06 06:37:10;;;;;;;12.10;3.30;;;2.90;99.90;;;;;;5075064;28;20228;-79
2021/04/06 06:39:38;;;;;;;7.35;2.80;;;2.70;99.90;;;;;;5073574;28;20205;-77
2021/04/06 06:42:07;;;;;;;12.52;3.05;;;2.80;99.90;;;;;;5072517;28;20579;-78
2021/04/06 06:44:35;;;;;;;11.38;3.45;;;2.80;99.90;;;;;;5072341;28;20244;-78
2021/04/06 06:47:09;;;;;;;9.38;2.40;;;2.80;99.90;;;;;;5074174;28;20300;-79
2021/04/06 06:49:38;;;;;;;13.93;3.60;;;2.90;99.90;;;;;;5074261;28;20265;-79
2021/04/06 06:52:08;;;;;;;7.50;3.00;;;3.00;99.90;;;;;;5073272;28;20214;-78
2021/04/06 06:54:39;;;;;;;5.50;2.75;;;3.00;99.90;;;;;;5080544;28;20230;-78
2021/04/06 06:57:14;;;;;;;12.25;2.90;;;3.00;99.90;;;;;;5073727;28;20208;-78
2021/04/06 06:59:45;;;;;;;10.82;3.55;;;3.10;99.90;;;;;;5073726;28;20205;-78
2021/04/06 07:02:21;;;;;;;8.35;2.70;;;3.40;99.90;;;;;;5073269;28;20205;-79
2021/04/06 07:04:48;;;;;;;14.45;3.78;;;3.50;99.90;;;;;;5073590;28;20218;-79
2021/04/06 07:07:15;;;;;;;18.45;3.25;;;3.60;99.90;;;;;;5072658;28;20225;-79
2021/04/06 07:09:41;;;;;;;12.48;3.10;;;3.40;99.90;;;;;;5072547;28;20205;-78
2021/04/06 07:12:10;;;;;;;7.45;2.88;;;3.30;99.90;;;;;;5073660;28;20202;-79
2021/04/06 07:14:40;;;;;;;8.90;2.97;;;3.50;99.90;;;;;;5072152;28;20718;-79
2021/04/06 07:17:07;;;;;;;11.73;2.97;;;3.50;99.90;;;;;;5069712;28;20319;-78
2021/04/06 07:19:37;;;;;;;6.95;2.65;;;3.60;99.90;;;;;;5067112;28;20205;-78
2021/04/06 07:22:05;;;;;;;8.52;3.03;;;3.50;99.90;;;;;;5068557;28;20437;-82
2021/04/06 07:24:33;;;;;;;11.35;3.17;;;3.50;99.90;;;;;;5074993;28;20217;-76
2021/04/06 07:27:05;;;;;;;6.82;2.50;;;3.60;99.90;;;;;;5054929;28;20210;-77
2021/04/06 07:29:32;;;;;;;7.30;3.40;;;3.80;99.90;;;;;;5071057;28;20301;-76
2021/04/06 07:32:01;;;;;;;7.75;3.00;;;3.70;99.90;;;;;;5070022;28;20288;-76
2021/04/06 07:34:29;;;;;;;10.38;3.40;;;3.60;99.90;;;;;;5070370;28;20375;-76
2021/04/06 07:36:56;;;;;;;7.90;3.00;;;3.70;99.90;;;;;;5070210;28;20212;-76
2021/04/06 07:39:24;;;;;;;8.25;2.90;;;3.80;99.90;;;;;;5069160;28;20213;-79
2021/04/06 07:41:52;;;;;;;5.30;2.67;;;4.10;99.90;;;;;;5071212;28;20214;-79
2021/04/06 07:44:18;;;;;;;6.95;2.85;;;3.90;99.90;;;;;;5073042;28;20221;-79
2021/04/06 07:46:46;;;;;;;7.15;2.78;;;4.10;99.90;;;;;;5072801;28;20288;-79
2021/04/06 07:49:33;;;;;;;11.18;3.53;;;4.20;99.90;;;;;;5072283;28;20218;-77
2021/04/06 07:52:01;;;;;;;10.80;3.05;;;4.20;99.90;;;;;;5057619;28;20578;-79
2021/04/06 07:54:44;;;;;;;10.73;3.00;;;4.10;99.90;;;;;;5074808;28;20342;-78
2021/04/06 07:57:11;;;;;;;6.00;2.70;;;4.40;99.90;;;;;;5072549;28;20205;-78
2021/04/06 07:59:40;;;;;;;7.40;3.13;;;4.60;99.90;;;;;;5066149;28;20207;-79
2021/04/06 08:02:26;;;;;;;9.07;2.65;;;4.40;99.90;;;;;;5052792;28;20221;-82
2021/04/06 08:04:55;;;;;;;8.90;2.90;;;4.40;99.90;;;;;;5066385;28;20282;-78
2021/04/06 08:07:26;;;;;;;13.25;2.70;;;4.50;99.90;;;;;;5073126;28;20221;-79
2021/04/06 08:09:53;;;;;;;8.18;3.35;;;4.70;99.90;;;;;;5076990;28;20298;-79
2021/04/06 08:12:21;;;;;;;9.75;2.78;;;4.90;99.90;;;;;;5073540;28;20210;-79
2021/04/06 08:14:50;;;;;;;11.32;2.97;;;4.80;99.90;;;;;;5074355;28;20231;-78
2021/04/06 08:17:48;;;;;;;11.05;2.55;;;5.00;99.90;;;;;;5074683;28;20212;-78
2021/04/06 08:20:23;;;;;;;6.05;2.78;;;5.00;99.90;;;;;;5064116;28;20202;-77
2021/04/06 08:22:52;;;;;;;8.02;2.50;;;5.00;99.90;;;;;;5064220;28;20840;-77
2021/04/06 08:25:48;;;;;;;9.13;2.42;;;5.20;99.90;;;;;;5062304;28;20729;-78
2021/04/06 08:28:39;;;;;;;8.77;2.90;;;5.30;99.60;;;;;;5063253;28;20244;-79
2021/04/06 08:31:26;;;;;;;7.00;2.63;;;5.30;99.10;;;;;;5067752;28;20209;-80
2021/04/06 08:33:53;;;;;;;11.15;2.88;;;5.50;99.10;;;;;;5076107;28;20226;-79
2021/04/06 08:36:28;;;;;;;7.68;2.80;;;5.50;99.10;;;;;;5075532;28;20205;-78
2021/04/06 08:38:56;;;;;;;6.88;2.50;;;5.60;98.40;;;;;;5076820;28;20257;-80
2021/04/06 08:41:36;;;;;;;6.32;2.50;;;5.40;98.60;;;;;;5059685;28;20294;-78
2021/04/06 08:44:06;;;;;;;5.90;2.70;;;5.60;98.70;;;;;;5073539;28;20324;-78
2021/04/06 08:46:50;;;;;;;5.78;1.90;;;5.20;99.30;;;;;;5077772;28;20590;-78
2021/04/06 08:49:19;;;;;;;8.40;2.65;;;5.00;99.90;;;;;;5076037;28;20233;-78
2021/04/06 08:51:48;;;;;;;11.07;2.90;;;4.90;99.90;;;;;;5076566;28;20623;-79
2021/04/06 08:54:19;;;;;;;10.63;3.05;;;4.90;99.90;;;;;;5075667;28;20327;-77
2021/04/06 08:56:47;;;;;;;7.50;2.53;;;5.00;99.90;;;;;;5085994;28;20194;-78
2021/04/06 08:59:16;;;;;;;8.25;2.58;;;4.80;99.90;;;;;;5079927;28;20319;-78
2021/04/06 09:01:44;;;;;;;6.47;2.35;;;5.00;99.90;;;;;;5065715;28;20289;-78
2021/04/06 09:04:15;;;;;;;7.18;2.45;;;5.10;99.90;;;;;;5076517;28;20222;-78
2021/04/06 09:06:42;;;;;;;6.45;2.50;;;5.40;99.90;;;;;;5081328;28;20262;-78
2021/04/06 09:09:10;;;;;;;9.70;2.88;;;5.60;99.90;;;;;;5079371;28;20289;-78
2021/04/06 09:11:38;;;;;;;11.75;2.63;;;5.60;99.70;;;;;;5058587;28;20234;-78
2021/04/06 09:14:04;;;;;;;6.00;2.05;;;5.50;99.40;;;;;;5073394;28;20630;-78
2021/04/06 09:16:33;;;;;;;5.55;2.20;;;5.50;99.40;;;;;;5076301;28;20301;-78
2021/04/06 09:19:01;;;;;;;9.55;2.55;;;5.80;98.40;;;;;;5075306;28;20279;-78
2021/04/06 09:21:30;;;;;;;4.72;2.22;;;5.40;98.30;;;;;;5056665;28;20202;-78
2021/04/06 09:23:59;;;;;;;7.03;3.30;;;5.60;98.50;;;;;;5063005;28;20305;-78
2021/04/06 09:26:28;;;;;;;5.18;1.58;;;5.70;99.00;;;;;;5075977;28;20293;-77
2021/04/06 09:29:06;;;;;;;5.32;2.00;;;5.70;97.80;;;;;;5057314;28;20301;-78
2021/04/06 09:31:34;;;;;;;6.50;2.47;;;5.70;97.70;;;;;;5067465;28;20242;-77
2021/04/06 09:34:11;;;;;;;6.78;2.20;;;5.80;97.60;;;;;;5084631;28;20264;-78
2021/04/06 09:36:38;;;;;;;7.30;1.80;;;5.60;97.50;;;;;;5074929;28;20253;-78
2021/04/06 09:39:06;;;;;;;3.90;1.95;;;5.50;97.70;;;;;;5075776;28;20218;-79
2021/04/06 09:41:36;;;;;;;6.07;2.20;;;5.40;98.10;;;;;;5071856;28;20274;-79
2021/04/06 09:44:04;;;;;;;8.52;3.00;;;5.70;98.20;;;;;;5075217;28;20248;-79
2021/04/06 09:46:35;;;;;;;6.60;2.35;;;5.70;98.00;;;;;;5077377;28;20224;-78
2021/04/06 09:49:02;;;;;;;6.88;2.25;;;5.70;97.40;;;;;;5077518;28;20237;-79
2021/04/06 09:51:30;;;;;;;6.95;2.10;;;5.80;97.80;;;;;;5077232;28;20206;-78
2021/04/06 09:53:57;;;;;;;6.90;2.70;;;5.90;97.80;;;;;;5079988;28;20373;-79
2021/04/06 09:56:24;;;;;;;8.32;3.70;;;5.70;97.60;;;;;;5084960;28;20739;-79
2021/04/06 09:58:52;;;;;;;6.68;2.20;;;5.90;97.20;;;;;;5073674;28;20257;-75
2021/04/06 10:01:20;;;;;;;6.25;1.92;;;6.20;97.20;;;;;;5071434;28;20288;-74
2021/04/06 10:03:47;;;;;;;6.90;2.30;;;6.00;96.80;;;;;;5072436;28;20253;-74
2021/04/06 10:06:14;;;;;;;10.95;2.50;;;5.80;96.80;;;;;;5071825;28;20216;-74
2021/04/06 10:08:41;;;;;;;4.90;2.38;;;5.40;96.80;;;;;;5064145;28;20222;-75
2021/04/06 10:11:10;;;;;;;8.35;2.72;;;5.60;97.50;;;;;;5070167;28;20336;-75
2021/04/06 10:13:38;;;;;;;7.85;2.42;;;5.60;97.20;;;;;;5072014;28;20316;-75
2021/04/06 10:16:12;;;;;;;4.85;1.70;;;5.70;97.10;;;;;;5072286;28;20202;-81
2021/04/06 10:18:41;;;;;;;7.93;3.25;;;5.50;96.20;;;;;;5073718;28;20202;-77
2021/04/06 10:21:23;;;;;;;7.25;2.10;;;5.50;95.70;;;;;;5073768;28;20201;-77
2021/04/06 10:23:50;;;;;;;4.95;1.30;;;5.40;95.80;;;;;;5071426;28;20603;-78
2021/04/06 10:26:23;;;;;;;9.43;2.13;;;5.60;95.80;;;;;;5068658;28;20209;-80
2021/04/06 10:29:05;;;;;;;6.82;1.58;;;5.60;95.20;;;;;;5076741;28;20236;-80
2021/04/06 10:31:49;;;;;;;5.30;2.30;;;5.30;95.00;;;;;;5075991;28;20505;-78
2021/04/06 10:34:16;;;;;;;10.25;2.45;;;5.40;95.40;;;;;;5065441;28;20263;-79
2021/04/06 10:36:55;;;;;;;5.93;2.30;;;5.40;95.30;;;;;;5074180;28;20205;-78
2021/04/06 10:39:35;;;;;;;5.85;2.08;;;5.40;94.80;;;;;;5053022;28;20202;-78
2021/04/06 10:42:02;;;;;;;7.13;2.30;;;5.50;94.10;;;;;;5066998;28;20202;-79
2021/04/06 10:44:30;;;;;;;6.85;2.08;;;5.50;94.10;;;;;;5075408;28;20237;-79
2021/04/06 10:46:57;;;;;;;6.85;2.35;;;5.70;94.20;;;;;;5076177;28;20241;-79
2021/04/06 10:49:23;;;;;;;5.13;1.70;;;5.70;94.20;;;;;;5075401;28;20234;-79
2021/04/06 10:51:52;;;;;;;5.82;2.30;;;5.80;94.50;;;;;;5075001;28;20194;-79
2021/04/06 10:54:19;;;;;;;9.43;3.00;;;5.70;94.10;;;;;;5074893;28;20317;-78
2021/04/06 10:56:47;;;;;;;5.63;1.75;;;6.00;94.40;;;;;;5073990;28;20641;-78
2021/04/06 10:59:24;;;;;;;7.45;2.53;;;6.00;94.60;;;;;;5075018;28;20202;-81
2021/04/06 11:01:52;;;;;;;3.67;1.10;;;6.00;94.90;;;;;;5076136;28;20272;-80
2021/04/06 11:04:20;;;;;;;6.22;2.35;;;5.70;94.80;;;;;;5085987;28;20711;-80
2021/04/06 11:06:51;;;;;;;7.70;2.33;;;5.90;94.90;;;;;;5076854;28;20230;-80
2021/04/06 11:09:20;;;;;;;7.20;1.85;;;5.80;94.40;;;;;;5073490;28;20696;-79
2021/04/06 11:11:48;;;;;;;10.60;4.15;;;5.90;95.20;;;;;;5074196;28;20719;-79
2021/04/06 11:14:17;;;;;;;5.47;1.80;;;6.10;94.40;;;;;;5075970;28;20264;-81
2021/04/06 11:16:44;;;;;;;6.18;1.80;;;6.20;93.40;;;;;;5076009;28;20230;-80
2021/04/06 11:19:12;;;;;;;3.65;1.25;;;6.10;93.10;;;;;;5076076;28;20198;-80
2021/04/06 11:21:41;;;;;;;5.32;2.20;;;6.10;93.50;;;;;;5075732;28;20201;-80
2021/04/06 11:24:10;;;;;;;6.50;2.05;;;5.90;93.90;;;;;;5075332;28;20230;-75
2021/04/06 11:26:36;;;;;;;2.83;1.25;;;6.00;93.70;;;;;;5074637;28;20197;-75
2021/04/06 11:29:04;;;;;;;9.70;2.80;;;5.90;92.80;;;;;;5050792;28;20222;-76
2021/04/06 11:31:31;;;;;;;6.70;2.45;;;5.90;93.50;;;;;;5072912;28;20281;-82
2021/04/06 11:33:58;;;;;;;4.63;1.67;;;6.00;93.50;;;;;;5074840;28;20231;-78
2021/04/06 11:36:24;;;;;;;6.43;1.95;;;6.30;91.90;;;;;;5074805;28;20228;-78
2021/04/06 11:38:52;;;;;;;4.70;1.60;;;6.30;91.60;;;;;;5054001;28;20290;-78
2021/04/06 11:41:18;;;;;;;6.50;2.40;;;6.70;91.00;;;;;;5054944;28;20309;-78
2021/04/06 11:43:46;;;;;;;9.17;2.50;;;6.40;91.00;;;;;;5056564;28;20230;-79
2021/04/06 11:46:12;;;;;;;7.40;2.13;;;6.60;90.40;;;;;;5055582;28;20463;-79
2021/04/06 11:48:39;;;;;;;5.68;2.25;;;6.40;90.70;;;;;;5073944;28;20512;-79
2021/04/06 11:51:06;;;;;;;7.53;2.40;;;6.40;90.90;;;;;;5075160;28;20210;-77
2021/04/06 11:53:32;;;;;;;4.90;1.67;;;6.60;90.40;;;;;;5074252;28;20480;-77
2021/04/06 11:56:00;;;;;;;5.53;2.10;;;6.70;90.50;;;;;;5072721;28;20242;-77
2021/04/06 11:58:26;;;;;;;5.07;1.90;;;6.20;90.40;;;;;;5055142;28;20626;-78
2021/04/06 12:00:53;;;;;;;6.53;2.15;;;5.90;90.60;;;;;;5065554;28;20240;-77
2021/04/06 12:03:19;;;;;;;4.53;1.52;;;6.00;90.80;;;;;;5086801;28;20216;-78
2021/04/06 12:05:45;;;;;;;5.03;1.80;;;6.10;91.00;;;;;;5094035;28;20706;-77
2021/04/06 12:08:12;;;;;;;3.85;1.02;;;6.10;90.10;;;;;;5064664;28;20225;-78
2021/04/06 12:10:38;;;;;;;5.05;1.80;;;6.20;90.00;;;;;;5054345;28;20210;-78
2021/04/06 12:13:05;;;;;;;6.88;1.90;;;6.30;87.80;;;;;;5054980;28;20240;-78
2021/04/06 12:15:32;;;;;;;5.25;2.00;;;6.40;86.70;;;;;;5060227;28;20309;-78
2021/04/06 12:17:58;;;;;;;5.57;2.13;;;6.30;86.30;;;;;;5071959;28;20210;-79
2021/04/06 12:20:25;;;;;;;5.63;1.90;;;6.10;87.30;;;;;;5077105;28;20292;-79
2021/04/06 12:22:51;;;;;;;6.03;1.90;;;6.10;88.50;;;;;;5080244;28;20206;-78
2021/04/06 12:25:18;;;;;;;6.63;2.60;;;6.10;88.30;;;;;;5079747;28;20498;-79
2021/04/06 12:27:45;;;;;;;6.35;2.33;;;6.40;86.20;;;;;;5070162;28;20449;-79
2021/04/06 12:30:14;;;;;;;5.90;2.05;;;6.10;86.80;;;;;;5055917;28;20225;-77
2021/04/06 12:32:40;;;;;;;5.53;1.92;;;6.20;86.40;;;;;;5062107;28;20255;-78
2021/04/06 12:35:08;;;;;;;5.07;2.25;;;6.40;85.40;;;;;;5053559;28;20254;-78
2021/04/06 12:37:34;;;;;;;9.43;2.33;;;6.30;85.50;;;;;;5072434;28;20245;-78
2021/04/06 12:40:01;;;;;;;4.75;1.85;;;6.30;85.40;;;;;;5071938;28;20233;-78
2021/04/06 12:42:28;;;;;;;6.53;1.90;;;6.40;82.80;;;;;;5072741;28;20256;-78
2021/04/06 12:44:55;;;;;;;4.65;1.80;;;6.70;81.20;;;;;;5058510;28;20283;-78
2021/04/06 12:47:22;;;;;;;6.53;1.85;;;6.60;81.10;;;;;;5053961;28;20290;-79
2021/04/06 12:49:48;;;;;;;5.00;1.73;;;6.90;81.20;;;;;;5053799;28;20323;-78
2021/04/06 12:52:16;;;;;;;7.38;2.17;;;6.90;81.10;;;;;;5058009;28;20241;-79
2021/04/06 12:54:43;;;;;;;4.25;1.80;;;7.00;81.50;;;;;;5066469;28;20229;-78
2021/04/06 12:57:10;;;;;;;3.13;1.30;;;7.10;77.10;;;;;;5099723;22;20235;-85
2021/04/06 12:59:36;;;;;;;3.40;1.70;;;7.10;74.10;;;;;;5101591;28;20205;-84
2021/04/06 13:02:03;;;;;;;7.18;1.52;;;7.10;74.10;;;;;;5102632;28;20451;-85
2021/04/06 13:04:30;;;;;;;3.72;1.50;;;7.00;74.60;;;;;;5101879;28;20212;-85